sensor_id;sensor_type;location;lat;lon;timestamp;temperature;humidity
35593;DHT22;64447;52.140;5.602;2024-02-28T00:01:05;5.70;99.90
35593;DHT22;64447;52.140;5.602;2024-02-28T00:03:30;5.60;99.90
35593;DHT22;64447;52.140;5.602;2024-02-28T00:05:57;5.40;99.90
35593;DHT22;64447;52.140;5.602;2024-02-28T00:08:23;5.30;99.90
35593;DHT22;64447;52.140;5.602;2024-02-28T00:10:48;5.40;99.90
35593;DHT22;64447;52.140;5.602;2024-02-28T00:13:14;5.50;99.90
35593;DHT22;64447;52.140;5.602;2024-02-28T00:15:41;5.10;99.90
35593;DHT22;64447;52.140;5.602;2024-02-28T00:18:07;5.20;99.90
35593;DHT22;64447;52.140;5.602;2024-02-28T00:20:32;5.10;99.90
35593;DHT22;64447;52.140;5.602;2024-02-28T00:22:58;5.20;99.90
35593;DHT22;64447;52.140;5.602;2024-02-28T00:25:23;5.20;99.90
35593;DHT22;64447;52.140;5.602;2024-02-28T00:27:49;5.30;99.90
35593;DHT22;64447;52.140;5.602;2024-02-28T00:30:14;5.30;99.90
35593;DHT22;64447;52.140;5.602;2024-02-28T00:32:40;5.40;99.90
35593;DHT22;64447;52.140;5.602;2024-02-28T00:35:06;5.50;99.90
35593;DHT22;64447;52.140;5.602;2024-02-28T00:37:32;5.50;99.90
35593;DHT22;64447;52.140;5.602;2024-02-28T00:39:58;5.50;99.90
35593;DHT22;64447;52.140;5.602;2024-02-28T00:42:23;5.50;99.90
35593;DHT22;64447;52.140;5.602;2024-02-28T00:44:49;5.50;99.90
35593;DHT22;64447;52.140;5.602;2024-02-28T00:47:15;5.20;99.90
35593;DHT22;64447;52.140;5.602;2024-02-28T00:49:40;5.30;99.90
35593;DHT22;64447;52.140;5.602;2024-02-28T00:52:06;5.00;99.90
35593;DHT22;64447;52.140;5.602;2024-02-28T00:54:32;5.00;99.90
35593;DHT22;64447;52.140;5.602;2024-02-28T00:56:57;5.00;99.90
35593;DHT22;64447;52.140;5.602;2024-02-28T00:59:23;4.90;99.90
35593;DHT22;64447;52.140;5.602;2024-02-28T01:01:48;4.90;99.90
35593;DHT22;64447;52.140;5.602;2024-02-28T01:04:14;5.10;99.90
35593;DHT22;64447;52.140;5.602;2024-02-28T01:06:39;4.90;99.90
35593;DHT22;64447;52.140;5.602;2024-02-28T01:09:05;4.90;99.90
35593;DHT22;64447;52.140;5.602;2024-02-28T01:11:30;4.80;99.90
35593;DHT22;64447;52.140;5.602;2024-02-28T01:13:56;4.90;99.90
35593;DHT22;64447;52.140;5.602;2024-02-28T01:16:21;4.80;99.90
35593;DHT22;64447;52.140;5.602;2024-02-28T01:18:47;5.00;99.90
35593;DHT22;64447;52.140;5.602;2024-02-28T01:21:12;4.90;99.90
35593;DHT22;64447;52.140;5.602;2024-02-28T01:23:38;4.90;99.90
35593;DHT22;64447;52.140;5.602;2024-02-28T01:26:03;4.90;99.90
35593;DHT22;64447;52.140;5.602;2024-02-28T01:28:30;4.70;99.90
35593;DHT22;64447;52.140;5.602;2024-02-28T01:30:56;4.70;99.90
35593;DHT22;64447;52.140;5.602;2024-02-28T01:33:21;4.80;99.90
35593;DHT22;64447;52.140;5.602;2024-02-28T01:35:47;4.90;99.90
35593;DHT22;64447;52.140;5.602;2024-02-28T01:38:13;4.90;99.90
35593;DHT22;64447;52.140;5.602;2024-02-28T01:40:38;4.80;99.90
35593;DHT22;64447;52.140;5.602;2024-02-28T01:43:06;5.00;99.90
35593;DHT22;64447;52.140;5.602;2024-02-28T01:45:32;5.00;99.90
35593;DHT22;64447;52.140;5.602;2024-02-28T01:47:58;5.10;99.90
35593;DHT22;64447;52.140;5.602;2024-02-28T01:50:23;5.00;99.90
35593;DHT22;64447;52.140;5.602;2024-02-28T01:52:49;4.80;99.90
35593;DHT22;64447;52.140;5.602;2024-02-28T01:55:15;5.00;99.90
35593;DHT22;64447;52.140;5.602;2024-02-28T01:57:40;4.90;99.90
35593;DHT22;64447;52.140;5.602;2024-02-28T02:00:06;4.90;99.90
35593;DHT22;64447;52.140;5.602;2024-02-28T02:02:33;4.80;99.90
35593;DHT22;64447;52.140;5.602;2024-02-28T02:04:59;4.80;99.90
35593;DHT22;64447;52.140;5.602;2024-02-28T02:07:25;4.70;99.90
35593;DHT22;64447;52.140;5.602;2024-02-28T02:09:51;4.60;99.90
35593;DHT22;64447;52.140;5.602;2024-02-28T02:12:17;4.50;99.90
35593;DHT22;64447;52.140;5.602;2024-02-28T02:14:47;4.50;99.90
35593;DHT22;64447;52.140;5.602;2024-02-28T02:17:12;4.60;99.90
35593;DHT22;64447;52.140;5.602;2024-02-28T02:19:38;4.60;99.90
35593;DHT22;64447;52.140;5.602;2024-02-28T02:22:03;4.50;99.90
35593;DHT22;64447;52.140;5.602;2024-02-28T02:24:30;4.40;99.90
35593;DHT22;64447;52.140;5.602;2024-02-28T02:27:00;4.50;99.90
35593;DHT22;64447;52.140;5.602;2024-02-28T02:29:26;4.60;99.90
35593;DHT22;64447;52.140;5.602;2024-02-28T02:31:53;4.60;99.90
35593;DHT22;64447;52.140;5.602;2024-02-28T02:34:19;4.70;99.90
35593;DHT22;64447;52.140;5.602;2024-02-28T02:36:44;4.80;99.90
35593;DHT22;64447;52.140;5.602;2024-02-28T02:39:13;4.80;99.90
35593;DHT22;64447;52.140;5.602;2024-02-28T02:41:38;4.70;99.90
35593;DHT22;64447;52.140;5.602;2024-02-28T02:44:04;4.80;99.90
35593;DHT22;64447;52.140;5.602;2024-02-28T02:46:30;4.90;99.90
35593;DHT22;64447;52.140;5.602;2024-02-28T02:48:55;4.90;99.90
35593;DHT22;64447;52.140;5.602;2024-02-28T02:51:21;4.70;99.90
35593;DHT22;64447;52.140;5.602;2024-02-28T02:53:46;4.80;99.90
35593;DHT22;64447;52.140;5.602;2024-02-28T02:56:12;4.80;99.90
35593;DHT22;64447;52.140;5.602;2024-02-28T02:58:37;4.70;99.90
35593;DHT22;64447;52.140;5.602;2024-02-28T03:01:03;4.80;99.90
35593;DHT22;64447;52.140;5.602;2024-02-28T03:03:28;4.60;99.90
35593;DHT22;64447;52.140;5.602;2024-02-28T03:05:54;4.60;99.90
35593;DHT22;64447;52.140;5.602;2024-02-28T03:08:19;4.70;99.90
35593;DHT22;64447;52.140;5.602;2024-02-28T03:10:45;4.80;99.90
35593;DHT22;64447;52.140;5.602;2024-02-28T03:13:10;4.80;99.90
35593;DHT22;64447;52.140;5.602;2024-02-28T03:15:36;4.80;99.90
35593;DHT22;64447;52.140;5.602;2024-02-28T03:18:01;5.00;99.90
35593;DHT22;64447;52.140;5.602;2024-02-28T03:20:27;4.80;99.90
35593;DHT22;64447;52.140;5.602;2024-02-28T03:22:53;4.70;99.90
35593;DHT22;64447;52.140;5.602;2024-02-28T03:25:18;4.80;99.90
35593;DHT22;64447;52.140;5.602;2024-02-28T03:27:44;5.10;99.90
35593;DHT22;64447;52.140;5.602;2024-02-28T03:30:09;4.90;99.90
35593;DHT22;64447;52.140;5.602;2024-02-28T03:32:35;4.90;99.90
35593;DHT22;64447;52.140;5.602;2024-02-28T03:35:00;4.90;99.90
35593;DHT22;64447;52.140;5.602;2024-02-28T03:37:26;5.00;99.90
35593;DHT22;64447;52.140;5.602;2024-02-28T03:39:51;5.00;99.90
35593;DHT22;64447;52.140;5.602;2024-02-28T03:42:17;5.00;99.90
35593;DHT22;64447;52.140;5.602;2024-02-28T03:44:42;4.90;99.90
35593;DHT22;64447;52.140;5.602;2024-02-28T03:47:08;4.90;99.90
35593;DHT22;64447;52.140;5.602;2024-02-28T03:49:34;4.80;99.90
35593;DHT22;64447;52.140;5.602;2024-02-28T03:52:00;4.90;99.90
35593;DHT22;64447;52.140;5.602;2024-02-28T03:54:26;5.00;99.90
35593;DHT22;64447;52.140;5.602;2024-02-28T03:56:52;5.00;99.90
35593;DHT22;64447;52.140;5.602;2024-02-28T03:59:17;5.00;99.90
35593;DHT22;64447;52.140;5.602;2024-02-28T04:01:43;5.00;99.90
35593;DHT22;64447;52.140;5.602;2024-02-28T04:04:08;5.00;99.90
35593;DHT22;64447;52.140;5.602;2024-02-28T04:06:34;4.90;99.90
35593;DHT22;64447;52.140;5.602;2024-02-28T04:08:59;4.90;99.90
35593;DHT22;64447;52.140;5.602;2024-02-28T04:11:25;4.80;99.90
35593;DHT22;64447;52.140;5.602;2024-02-28T04:13:51;4.90;99.90
35593;DHT22;64447;52.140;5.602;2024-02-28T04:16:16;5.00;99.90
35593;DHT22;64447;52.140;5.602;2024-02-28T04:18:42;4.90;99.90
35593;DHT22;64447;52.140;5.602;2024-02-28T04:21:08;5.00;99.90
35593;DHT22;64447;52.140;5.602;2024-02-28T04:23:34;5.00;99.90
35593;DHT22;64447;52.140;5.602;2024-02-28T04:25:59;4.80;99.90
35593;DHT22;64447;52.140;5.602;2024-02-28T04:28:25;4.80;99.90
35593;DHT22;64447;52.140;5.602;2024-02-28T04:30:50;4.70;99.90
35593;DHT22;64447;52.140;5.602;2024-02-28T04:33:16;4.70;99.90
35593;DHT22;64447;52.140;5.602;2024-02-28T04:35:41;4.70;99.90
35593;DHT22;64447;52.140;5.602;2024-02-28T04:38:07;4.80;99.90
35593;DHT22;64447;52.140;5.602;2024-02-28T04:40:32;4.80;99.90
35593;DHT22;64447;52.140;5.602;2024-02-28T04:42:58;4.90;99.90
35593;DHT22;64447;52.140;5.602;2024-02-28T04:45:23;4.90;99.90
35593;DHT22;64447;52.140;5.602;2024-02-28T04:47:49;5.00;99.90
35593;DHT22;64447;52.140;5.602;2024-02-28T04:50:17;5.00;99.90
35593;DHT22;64447;52.140;5.602;2024-02-28T04:52:42;5.00;99.90
35593;DHT22;64447;52.140;5.602;2024-02-28T04:55:08;5.10;99.90
35593;DHT22;64447;52.140;5.602;2024-02-28T04:57:33;5.30;99.90
35593;DHT22;64447;52.140;5.602;2024-02-28T04:59:59;5.30;99.90
35593;DHT22;64447;52.140;5.602;2024-02-28T05:02:24;5.30;99.90
35593;DHT22;64447;52.140;5.602;2024-02-28T05:04:51;5.30;99.90
35593;DHT22;64447;52.140;5.602;2024-02-28T05:07:16;5.30;99.90
35593;DHT22;64447;52.140;5.602;2024-02-28T05:09:42;5.30;99.90
35593;DHT22;64447;52.140;5.602;2024-02-28T05:12:08;5.40;99.90
35593;DHT22;64447;52.140;5.602;2024-02-28T05:14:33;5.40;99.90
35593;DHT22;64447;52.140;5.602;2024-02-28T05:16:59;5.30;99.90
35593;DHT22;64447;52.140;5.602;2024-02-28T05:19:24;5.30;99.90
35593;DHT22;64447;52.140;5.602;2024-02-28T05:21:50;5.10;99.90
35593;DHT22;64447;52.140;5.602;2024-02-28T05:24:16;5.00;99.90
35593;DHT22;64447;52.140;5.602;2024-02-28T05:26:41;4.90;99.90
35593;DHT22;64447;52.140;5.602;2024-02-28T05:29:07;4.90;99.90
35593;DHT22;64447;52.140;5.602;2024-02-28T05:31:33;4.90;99.90
35593;DHT22;64447;52.140;5.602;2024-02-28T05:33:59;4.90;99.90
35593;DHT22;64447;52.140;5.602;2024-02-28T05:36:28;4.90;99.90
35593;DHT22;64447;52.140;5.602;2024-02-28T05:38:54;4.90;99.90
35593;DHT22;64447;52.140;5.602;2024-02-28T05:41:20;5.00;99.90
35593;DHT22;64447;52.140;5.602;2024-02-28T05:43:46;4.90;99.90
35593;DHT22;64447;52.140;5.602;2024-02-28T05:46:12;5.20;99.90
35593;DHT22;64447;52.140;5.602;2024-02-28T05:48:37;4.90;99.90
35593;DHT22;64447;52.140;5.602;2024-02-28T05:51:03;5.00;99.90
35593;DHT22;64447;52.140;5.602;2024-02-28T05:53:29;5.00;99.90
35593;DHT22;64447;52.140;5.602;2024-02-28T05:56:01;5.00;99.90
35593;DHT22;64447;52.140;5.602;2024-02-28T05:58:26;5.10;99.90
35593;DHT22;64447;52.140;5.602;2024-02-28T06:00:52;5.00;99.90
35593;DHT22;64447;52.140;5.602;2024-02-28T06:03:17;4.90;99.90
35593;DHT22;64447;52.140;5.602;2024-02-28T06:05:43;4.90;99.90
35593;DHT22;64447;52.140;5.602;2024-02-28T06:08:08;5.00;99.90
35593;DHT22;64447;52.140;5.602;2024-02-28T06:10:34;5.20;99.90
35593;DHT22;64447;52.140;5.602;2024-02-28T06:12:59;5.10;99.90
35593;DHT22;64447;52.140;5.602;2024-02-28T06:15:25;5.10;99.90
35593;DHT22;64447;52.140;5.602;2024-02-28T06:17:51;5.30;99.90
35593;DHT22;64447;52.140;5.602;2024-02-28T06:20:16;5.30;99.90
35593;DHT22;64447;52.140;5.602;2024-02-28T06:22:42;5.20;99.90
35593;DHT22;64447;52.140;5.602;2024-02-28T06:25:08;5.20;99.90
35593;DHT22;64447;52.140;5.602;2024-02-28T06:27:42;5.30;99.90
35593;DHT22;64447;52.140;5.602;2024-02-28T06:30:08;5.30;99.90
35593;DHT22;64447;52.140;5.602;2024-02-28T06:32:34;5.20;99.90
35593;DHT22;64447;52.140;5.602;2024-02-28T06:34:59;5.30;99.90
35593;DHT22;64447;52.140;5.602;2024-02-28T06:37:27;5.20;99.90
35593;DHT22;64447;52.140;5.602;2024-02-28T06:39:53;5.30;99.90
35593;DHT22;64447;52.140;5.602;2024-02-28T06:42:18;5.40;99.90
35593;DHT22;64447;52.140;5.602;2024-02-28T06:44:44;5.40;99.90
35593;DHT22;64447;52.140;5.602;2024-02-28T06:47:09;5.40;99.90
35593;DHT22;64447;52.140;5.602;2024-02-28T06:49:35;5.40;99.90
35593;DHT22;64447;52.140;5.602;2024-02-28T06:52:00;5.30;99.90
35593;DHT22;64447;52.140;5.602;2024-02-28T06:54:27;5.30;99.90
35593;DHT22;64447;52.140;5.602;2024-02-28T06:56:52;5.80;99.90
35593;DHT22;64447;52.140;5.602;2024-02-28T06:59:18;5.40;99.90
35593;DHT22;64447;52.140;5.602;2024-02-28T07:01:43;5.20;99.90
35593;DHT22;64447;52.140;5.602;2024-02-28T07:04:12;5.20;99.90
35593;DHT22;64447;52.140;5.602;2024-02-28T07:06:38;5.20;99.90
35593;DHT22;64447;52.140;5.602;2024-02-28T07:09:03;5.30;99.90
35593;DHT22;64447;52.140;5.602;2024-02-28T07:11:29;5.20;99.90
35593;DHT22;64447;52.140;5.602;2024-02-28T07:13:54;5.20;99.90
35593;DHT22;64447;52.140;5.602;2024-02-28T07:16:22;5.40;99.90
35593;DHT22;64447;52.140;5.602;2024-02-28T07:18:47;5.30;99.90
35593;DHT22;64447;52.140;5.602;2024-02-28T07:21:13;5.40;99.90
35593;DHT22;64447;52.140;5.602;2024-02-28T07:23:39;5.40;99.90
35593;DHT22;64447;52.140;5.602;2024-02-28T07:26:06;5.20;99.90
35593;DHT22;64447;52.140;5.602;2024-02-28T07:28:32;5.20;99.90
35593;DHT22;64447;52.140;5.602;2024-02-28T07:30:57;5.10;99.90
35593;DHT22;64447;52.140;5.602;2024-02-28T07:33:23;5.30;99.90
35593;DHT22;64447;52.140;5.602;2024-02-28T07:35:49;5.50;99.90
35593;DHT22;64447;52.140;5.602;2024-02-28T07:38:15;5.40;99.90
35593;DHT22;64447;52.140;5.602;2024-02-28T07:40:42;5.10;99.90
35593;DHT22;64447;52.140;5.602;2024-02-28T07:43:08;5.10;99.90
35593;DHT22;64447;52.140;5.602;2024-02-28T07:45:34;5.20;99.90
35593;DHT22;64447;52.140;5.602;2024-02-28T07:48:00;5.20;99.90
35593;DHT22;64447;52.140;5.602;2024-02-28T07:50:26;5.10;99.90
35593;DHT22;64447;52.140;5.602;2024-02-28T07:52:53;5.10;99.90
35593;DHT22;64447;52.140;5.602;2024-02-28T07:55:19;5.40;99.90
35593;DHT22;64447;52.140;5.602;2024-02-28T07:57:50;5.10;99.90
35593;DHT22;64447;52.140;5.602;2024-02-28T08:00:15;5.10;99.90
35593;DHT22;64447;52.140;5.602;2024-02-28T08:02:43;5.20;99.90
35593;DHT22;64447;52.140;5.602;2024-02-28T08:05:08;5.20;99.90
35593;DHT22;64447;52.140;5.602;2024-02-28T08:07:34;5.20;99.90
35593;DHT22;64447;52.140;5.602;2024-02-28T08:09:59;5.10;99.90
35593;DHT22;64447;52.140;5.602;2024-02-28T08:12:25;5.20;99.90
35593;DHT22;64447;52.140;5.602;2024-02-28T08:14:50;5.10;99.90
35593;DHT22;64447;52.140;5.602;2024-02-28T08:17:16;5.10;99.90
35593;DHT22;64447;52.140;5.602;2024-02-28T08:19:42;5.00;99.90
35593;DHT22;64447;52.140;5.602;2024-02-28T08:22:07;5.00;99.90
35593;DHT22;64447;52.140;5.602;2024-02-28T08:24:33;5.10;99.90
35593;DHT22;64447;52.140;5.602;2024-02-28T08:26:59;5.00;99.90
35593;DHT22;64447;52.140;5.602;2024-02-28T08:29:25;5.10;99.90
35593;DHT22;64447;52.140;5.602;2024-02-28T08:31:51;5.10;99.90
35593;DHT22;64447;52.140;5.602;2024-02-28T08:34:16;5.20;99.90
35593;DHT22;64447;52.140;5.602;2024-02-28T08:36:43;5.30;99.90
35593;DHT22;64447;52.140;5.602;2024-02-28T08:39:08;5.40;99.90
35593;DHT22;64447;52.140;5.602;2024-02-28T08:41:34;5.50;99.90
35593;DHT22;64447;52.140;5.602;2024-02-28T08:44:00;5.60;99.90
35593;DHT22;64447;52.140;5.602;2024-02-28T08:46:26;5.30;99.90
35593;DHT22;64447;52.140;5.602;2024-02-28T08:48:52;5.40;99.90
35593;DHT22;64447;52.140;5.602;2024-02-28T08:51:17;5.40;99.90
35593;DHT22;64447;52.140;5.602;2024-02-28T08:53:43;5.50;99.90
35593;DHT22;64447;52.140;5.602;2024-02-28T08:56:08;5.50;99.90
35593;DHT22;64447;52.140;5.602;2024-02-28T08:58:34;5.60;99.90
35593;DHT22;64447;52.140;5.602;2024-02-28T09:01:00;5.70;99.90
35593;DHT22;64447;52.140;5.602;2024-02-28T09:03:25;5.60;99.90
35593;DHT22;64447;52.140;5.602;2024-02-28T09:05:51;5.50;99.90
35593;DHT22;64447;52.140;5.602;2024-02-28T09:08:18;5.50;99.90
35593;DHT22;64447;52.140;5.602;2024-02-28T09:10:43;5.70;99.90
35593;DHT22;64447;52.140;5.602;2024-02-28T09:13:09;5.70;99.90
35593;DHT22;64447;52.140;5.602;2024-02-28T09:15:37;5.90;99.90
35593;DHT22;64447;52.140;5.602;2024-02-28T09:18:03;5.90;99.90
35593;DHT22;64447;52.140;5.602;2024-02-28T09:20:29;5.90;99.90
35593;DHT22;64447;52.140;5.602;2024-02-28T09:22:54;6.10;99.90
35593;DHT22;64447;52.140;5.602;2024-02-28T09:25:20;6.00;99.90
35593;DHT22;64447;52.140;5.602;2024-02-28T09:27:47;6.00;99.90
35593;DHT22;64447;52.140;5.602;2024-02-28T09:30:13;6.10;99.90
35593;DHT22;64447;52.140;5.602;2024-02-28T09:32:38;6.00;99.90
35593;DHT22;64447;52.140;5.602;2024-02-28T09:35:04;6.10;99.90
35593;DHT22;64447;52.140;5.602;2024-02-28T09:37:30;6.40;99.90
35593;DHT22;64447;52.140;5.602;2024-02-28T09:39:57;6.50;99.90
35593;DHT22;64447;52.140;5.602;2024-02-28T09:42:23;6.40;99.90
35593;DHT22;64447;52.140;5.602;2024-02-28T09:44:49;6.40;99.90
35593;DHT22;64447;52.140;5.602;2024-02-28T09:47:14;6.40;99.90
35593;DHT22;64447;52.140;5.602;2024-02-28T09:49:42;6.30;99.90
35593;DHT22;64447;52.140;5.602;2024-02-28T09:52:08;6.50;99.90
35593;DHT22;64447;52.140;5.602;2024-02-28T09:54:34;6.40;99.90
35593;DHT22;64447;52.140;5.602;2024-02-28T09:56:59;6.50;99.90
35593;DHT22;64447;52.140;5.602;2024-02-28T09:59:25;6.40;99.90
35593;DHT22;64447;52.140;5.602;2024-02-28T10:01:57;6.50;99.90
35593;DHT22;64447;52.140;5.602;2024-02-28T10:04:26;6.60;99.90
35593;DHT22;64447;52.140;5.602;2024-02-28T10:06:53;6.50;99.90
35593;DHT22;64447;52.140;5.602;2024-02-28T10:09:18;6.40;99.90
35593;DHT22;64447;52.140;5.602;2024-02-28T10:11:45;6.50;99.90
35593;DHT22;64447;52.140;5.602;2024-02-28T10:14:12;6.60;99.90
35593;DHT22;64447;52.140;5.602;2024-02-28T10:16:37;6.60;99.90
35593;DHT22;64447;52.140;5.602;2024-02-28T10:19:05;6.60;99.90
35593;DHT22;64447;52.140;5.602;2024-02-28T10:21:31;6.80;99.90
35593;DHT22;64447;52.140;5.602;2024-02-28T10:23:59;6.80;99.90
35593;DHT22;64447;52.140;5.602;2024-02-28T10:26:25;6.80;99.90
35593;DHT22;64447;52.140;5.602;2024-02-28T10:28:51;6.90;99.90
35593;DHT22;64447;52.140;5.602;2024-02-28T10:31:17;7.00;99.90
35593;DHT22;64447;52.140;5.602;2024-02-28T10:33:43;7.10;99.90
35593;DHT22;64447;52.140;5.602;2024-02-28T10:36:09;7.00;99.90
35593;DHT22;64447;52.140;5.602;2024-02-28T10:38:34;7.20;99.90
35593;DHT22;64447;52.140;5.602;2024-02-28T10:41:02;7.20;99.90
35593;DHT22;64447;52.140;5.602;2024-02-28T10:43:29;7.40;99.90
35593;DHT22;64447;52.140;5.602;2024-02-28T10:45:58;7.40;99.90
35593;DHT22;64447;52.140;5.602;2024-02-28T10:48:25;7.40;99.90
35593;DHT22;64447;52.140;5.602;2024-02-28T10:50:51;7.50;99.90
35593;DHT22;64447;52.140;5.602;2024-02-28T10:53:22;7.50;99.90
35593;DHT22;64447;52.140;5.602;2024-02-28T10:55:49;7.70;99.90
35593;DHT22;64447;52.140;5.602;2024-02-28T10:58:18;7.70;99.90
35593;DHT22;64447;52.140;5.602;2024-02-28T11:00:44;7.60;99.90
35593;DHT22;64447;52.140;5.602;2024-02-28T11:03:13;7.60;99.90
35593;DHT22;64447;52.140;5.602;2024-02-28T11:05:42;7.60;99.90
35593;DHT22;64447;52.140;5.602;2024-02-28T11:08:09;7.70;99.90
35593;DHT22;64447;52.140;5.602;2024-02-28T11:10:35;7.60;99.90
35593;DHT22;64447;52.140;5.602;2024-02-28T11:13:01;7.60;99.90
35593;DHT22;64447;52.140;5.602;2024-02-28T11:15:27;7.70;99.90
35593;DHT22;64447;52.140;5.602;2024-02-28T11:18:07;7.90;99.90
35593;DHT22;64447;52.140;5.602;2024-02-28T11:20:34;8.00;99.90
35593;DHT22;64447;52.140;5.602;2024-02-28T11:23:00;8.10;99.90
35593;DHT22;64447;52.140;5.602;2024-02-28T11:25:25;8.20;99.90
35593;DHT22;64447;52.140;5.602;2024-02-28T11:27:51;8.10;99.90
35593;DHT22;64447;52.140;5.602;2024-02-28T11:30:17;8.20;99.90
35593;DHT22;64447;52.140;5.602;2024-02-28T11:32:43;8.20;99.90
35593;DHT22;64447;52.140;5.602;2024-02-28T11:35:09;8.00;99.90
35593;DHT22;64447;52.140;5.602;2024-02-28T11:37:38;8.00;99.90
35593;DHT22;64447;52.140;5.602;2024-02-28T11:40:07;8.00;99.90
35593;DHT22;64447;52.140;5.602;2024-02-28T11:42:34;8.10;99.90
35593;DHT22;64447;52.140;5.602;2024-02-28T11:45:02;8.20;99.90
35593;DHT22;64447;52.140;5.602;2024-02-28T11:47:32;8.20;99.90
35593;DHT22;64447;52.140;5.602;2024-02-28T11:50:02;8.10;99.90
35593;DHT22;64447;52.140;5.602;2024-02-28T11:52:31;8.10;99.90
35593;DHT22;64447;52.140;5.602;2024-02-28T11:54:56;8.20;99.90
35593;DHT22;64447;52.140;5.602;2024-02-28T11:57:22;8.40;99.90
35593;DHT22;64447;52.140;5.602;2024-02-28T11:59:48;8.30;99.90
35593;DHT22;64447;52.140;5.602;2024-02-28T12:02:15;8.30;99.90
35593;DHT22;64447;52.140;5.602;2024-02-28T12:04:45;8.40;99.90
35593;DHT22;64447;52.140;5.602;2024-02-28T12:07:11;8.40;99.90
35593;DHT22;64447;52.140;5.602;2024-02-28T12:09:37;8.40;99.90
35593;DHT22;64447;52.140;5.602;2024-02-28T12:12:06;8.50;99.90
35593;DHT22;64447;52.140;5.602;2024-02-28T12:14:32;8.40;99.90
35593;DHT22;64447;52.140;5.602;2024-02-28T12:16:58;8.50;99.90
35593;DHT22;64447;52.140;5.602;2024-02-28T12:19:24;8.70;99.90
35593;DHT22;64447;52.140;5.602;2024-02-28T12:21:50;8.60;99.90
35593;DHT22;64447;52.140;5.602;2024-02-28T12:24:15;8.60;99.90
35593;DHT22;64447;52.140;5.602;2024-02-28T12:26:41;8.60;99.90
35593;DHT22;64447;52.140;5.602;2024-02-28T12:29:07;8.80;99.90
35593;DHT22;64447;52.140;5.602;2024-02-28T12:31:35;9.00;99.90
35593;DHT22;64447;52.140;5.602;2024-02-28T12:34:00;9.00;99.90
35593;DHT22;64447;52.140;5.602;2024-02-28T12:36:26;9.10;99.90
35593;DHT22;64447;52.140;5.602;2024-02-28T12:38:52;9.20;99.90
35593;DHT22;64447;52.140;5.602;2024-02-28T12:41:18;9.10;99.90
35593;DHT22;64447;52.140;5.602;2024-02-28T12:43:43;9.10;99.90
35593;DHT22;64447;52.140;5.602;2024-02-28T12:46:09;9.00;99.90
35593;DHT22;64447;52.140;5.602;2024-02-28T12:48:39;8.90;99.90
35593;DHT22;64447;52.140;5.602;2024-02-28T12:51:05;8.90;99.90
35593;DHT22;64447;52.140;5.602;2024-02-28T12:53:31;8.90;99.90
35593;DHT22;64447;52.140;5.602;2024-02-28T12:55:57;8.90;99.90
35593;DHT22;64447;52.140;5.602;2024-02-28T12:58:23;9.00;99.90
35593;DHT22;64447;52.140;5.602;2024-02-28T13:00:49;9.00;99.90
35593;DHT22;64447;52.140;5.602;2024-02-28T13:03:15;9.10;99.90
35593;DHT22;64447;52.140;5.602;2024-02-28T13:05:42;9.10;99.90
35593;DHT22;64447;52.140;5.602;2024-02-28T13:08:07;9.10;99.90
35593;DHT22;64447;52.140;5.602;2024-02-28T13:10:33;9.30;99.90
35593;DHT22;64447;52.140;5.602;2024-02-28T13:13:07;9.30;99.90
35593;DHT22;64447;52.140;5.602;2024-02-28T13:15:33;9.30;99.90
35593;DHT22;64447;52.140;5.602;2024-02-28T13:17:59;9.30;99.90
35593;DHT22;64447;52.140;5.602;2024-02-28T13:20:26;9.30;99.90
35593;DHT22;64447;52.140;5.602;2024-02-28T13:22:52;9.30;99.90
35593;DHT22;64447;52.140;5.602;2024-02-28T13:25:19;9.30;99.90
35593;DHT22;64447;52.140;5.602;2024-02-28T13:27:45;9.50;99.90
35593;DHT22;64447;52.140;5.602;2024-02-28T13:30:12;9.50;99.90
35593;DHT22;64447;52.140;5.602;2024-02-28T13:32:39;9.50;99.90
35593;DHT22;64447;52.140;5.602;2024-02-28T13:35:04;9.50;99.90
35593;DHT22;64447;52.140;5.602;2024-02-28T13:37:30;9.50;99.90
35593;DHT22;64447;52.140;5.602;2024-02-28T13:39:57;9.50;99.90
35593;DHT22;64447;52.140;5.602;2024-02-28T13:42:23;9.40;99.90
35593;DHT22;64447;52.140;5.602;2024-02-28T13:44:50;9.60;99.90
35593;DHT22;64447;52.140;5.602;2024-02-28T13:47:16;9.70;99.90
35593;DHT22;64447;52.140;5.602;2024-02-28T13:49:41;9.80;99.90
35593;DHT22;64447;52.140;5.602;2024-02-28T13:52:07;9.70;99.90
35593;DHT22;64447;52.140;5.602;2024-02-28T13:54:33;9.80;99.90
35593;DHT22;64447;52.140;5.602;2024-02-28T13:57:00;10.00;99.90
35593;DHT22;64447;52.140;5.602;2024-02-28T13:59:27;9.80;99.90
35593;DHT22;64447;52.140;5.602;2024-02-28T14:01:55;9.80;99.90
35593;DHT22;64447;52.140;5.602;2024-02-28T14:04:21;10.00;99.90
35593;DHT22;64447;52.140;5.602;2024-02-28T14:06:47;9.80;99.90
35593;DHT22;64447;52.140;5.602;2024-02-28T14:09:13;9.80;99.90
35593;DHT22;64447;52.140;5.602;2024-02-28T14:11:39;10.00;99.90
35593;DHT22;64447;52.140;5.602;2024-02-28T14:14:05;10.00;99.90
35593;DHT22;64447;52.140;5.602;2024-02-28T14:16:30;10.00;99.90
35593;DHT22;64447;52.140;5.602;2024-02-28T14:18:58;10.00;99.90
35593;DHT22;64447;52.140;5.602;2024-02-28T14:21:23;10.00;99.90
35593;DHT22;64447;52.140;5.602;2024-02-28T14:23:53;9.90;99.90
35593;DHT22;64447;52.140;5.602;2024-02-28T14:26:22;9.70;99.90
35593;DHT22;64447;52.140;5.602;2024-02-28T14:28:49;9.80;99.90
35593;DHT22;64447;52.140;5.602;2024-02-28T14:31:15;9.80;99.90
35593;DHT22;64447;52.140;5.602;2024-02-28T14:33:41;9.80;99.90
35593;DHT22;64447;52.140;5.602;2024-02-28T14:36:07;9.90;99.90
35593;DHT22;64447;52.140;5.602;2024-02-28T14:38:32;9.90;99.90
35593;DHT22;64447;52.140;5.602;2024-02-28T14:40:58;10.00;99.90
35593;DHT22;64447;52.140;5.602;2024-02-28T14:43:24;10.00;99.90
35593;DHT22;64447;52.140;5.602;2024-02-28T14:45:49;9.90;99.90
35593;DHT22;64447;52.140;5.602;2024-02-28T14:48:15;9.70;99.90
35593;DHT22;64447;52.140;5.602;2024-02-28T14:50:41;9.70;99.90
35593;DHT22;64447;52.140;5.602;2024-02-28T14:53:08;9.80;99.90
35593;DHT22;64447;52.140;5.602;2024-02-28T14:55:33;9.80;99.90
35593;DHT22;64447;52.140;5.602;2024-02-28T14:57:59;9.80;99.90
35593;DHT22;64447;52.140;5.602;2024-02-28T15:00:27;9.90;99.90
35593;DHT22;64447;52.140;5.602;2024-02-28T15:02:53;10.10;99.90
35593;DHT22;64447;52.140;5.602;2024-02-28T15:05:19;10.10;99.90
35593;DHT22;64447;52.140;5.602;2024-02-28T15:07:45;10.00;99.90
35593;DHT22;64447;52.140;5.602;2024-02-28T15:10:10;10.00;99.90
35593;DHT22;64447;52.140;5.602;2024-02-28T15:12:36;10.00;99.90
35593;DHT22;64447;52.140;5.602;2024-02-28T15:15:03;10.00;99.90
35593;DHT22;64447;52.140;5.602;2024-02-28T15:17:30;10.00;99.90
35593;DHT22;64447;52.140;5.602;2024-02-28T15:19:56;10.00;99.90
35593;DHT22;64447;52.140;5.602;2024-02-28T15:22:22;9.80;99.90
35593;DHT22;64447;52.140;5.602;2024-02-28T15:24:48;9.90;99.90
35593;DHT22;64447;52.140;5.602;2024-02-28T15:27:14;9.80;99.90
35593;DHT22;64447;52.140;5.602;2024-02-28T15:29:39;9.70;99.90
35593;DHT22;64447;52.140;5.602;2024-02-28T15:32:08;9.70;99.90
35593;DHT22;64447;52.140;5.602;2024-02-28T15:34:34;9.70;99.90
35593;DHT22;64447;52.140;5.602;2024-02-28T15:37:03;9.80;99.90